Burroughs, Louisiana
Current Conditions -  °F | °C
As of 5:53 AM on Sunday 23 Nov 2014 (Local Time) from KMLU Reporting Station
Light Rain Light Rain  
Wind Chill: 62°   Ceiling: 700
Heat Index: 62°   Visibility: 4mi
Dew Point: 61°   Wind: 3mph
Humidity: 96%   Direction: NA
Pressure: 29.69"   Gusts: NA
Location:  32.1631°N, 92.1971°W
Report Text: KMLU 231153Z VRB03KT 4SM -RA BR OVC007 17/16 A2969 RMK AO2 SLP054 P0009 60009 70009 T01670161 10167 20156 58018
Loading
Personal Weather Stations






























Interactive Weather Map New forecast layout! Learn more

10-Day Weather Forecast

Advertisements
Track Severe Weather on mobile